createdAt,value
2022-12-23T00:02:43.609Z,7.28
2022-12-23T00:08:06.653Z,7.60
2022-12-23T00:13:46.648Z,2.83
2022-12-23T00:19:08.363Z,6.13
2022-12-23T00:24:30.070Z,4.32
2022-12-23T00:29:51.885Z,4.30
2022-12-23T00:35:13.615Z,5.95
2022-12-23T00:40:54.033Z,3.00
2022-12-23T00:46:15.877Z,2.78
2022-12-23T00:51:37.636Z,3.55
2022-12-23T00:57:00.128Z,1.83
2022-12-23T01:02:40.744Z,3.92
2022-12-23T01:08:07.951Z,3.60
2022-12-23T01:13:29.663Z,1.90
2022-12-23T01:18:51.345Z,3.53
2022-12-23T01:24:13.066Z,3.55
2022-12-23T01:29:34.888Z,3.08
2022-12-23T01:34:56.614Z,2.55
2022-12-23T01:40:18.459Z,3.05
2022-12-23T01:45:40.202Z,2.75
2022-12-23T01:51:08.981Z,2.40
2022-12-23T01:56:36.916Z,2.78
2022-12-23T02:02:17.695Z,2.58
2022-12-23T02:07:59.414Z,2.58
2022-12-23T02:13:29.595Z,3.88
2022-12-23T02:19:24.819Z,2.25
2022-12-23T02:25:31.930Z,2.20
2022-12-23T02:31:23.118Z,0.93
2022-12-23T02:37:00.092Z,2.17
2022-12-23T02:42:33.586Z,1.20
2022-12-23T02:48:12.480Z,3.88
2022-12-23T02:53:40.544Z,1.33
2022-12-23T02:59:06.834Z,1.63
2022-12-23T03:04:28.657Z,1.80
2022-12-23T03:10:08.558Z,3.38
2022-12-23T03:15:52.247Z,1.05
2022-12-23T03:21:35.282Z,2.60
2022-12-23T03:27:28.171Z,0.88
2022-12-23T03:32:55.365Z,1.23
2022-12-23T03:38:19.289Z,1.45
2022-12-23T03:43:51.227Z,1.17
2022-12-23T03:49:18.760Z,0.90
2022-12-23T03:54:48.430Z,4.03
2022-12-23T04:00:11.088Z,0.60
2022-12-23T04:05:36.587Z,0.98
2022-12-23T04:10:59.312Z,0.70
2022-12-23T04:16:21.256Z,0.70
2022-12-23T04:21:43.003Z,1.42
2022-12-23T04:27:05.133Z,1.55
2022-12-23T04:32:26.972Z,1.23
2022-12-23T04:37:48.759Z,2.70
2022-12-23T04:43:10.464Z,1.42
2022-12-23T04:48:32.166Z,1.80
2022-12-23T04:53:53.822Z,1.02
2022-12-23T04:59:15.541Z,0.85
2022-12-23T05:04:37.385Z,0.30
2022-12-23T05:10:02.132Z,1.27
2022-12-23T05:15:24.273Z,0.97
2022-12-23T05:20:46.360Z,1.20
2022-12-23T05:26:08.044Z,0.65
2022-12-23T05:31:29.769Z,0.75
2022-12-23T05:36:51.559Z,1.00
2022-12-23T05:42:13.856Z,1.15
2022-12-23T05:47:36.022Z,0.65
2022-12-23T05:52:57.986Z,1.00
2022-12-23T05:58:19.711Z,0.55
2022-12-23T06:03:41.450Z,1.20
2022-12-23T06:09:03.382Z,0.50
2022-12-23T06:14:28.863Z,0.40
2022-12-23T06:19:51.142Z,3.05
2022-12-23T06:25:12.952Z,0.68
2022-12-23T06:30:35.230Z,1.00
2022-12-23T06:35:56.929Z,1.60
2022-12-23T06:41:18.909Z,1.27
2022-12-23T06:46:40.603Z,1.45
2022-12-23T06:52:02.374Z,6.28
2022-12-23T06:57:24.048Z,4.32
2022-12-23T07:02:45.914Z,4.22
2022-12-23T07:08:07.718Z,3.20
2022-12-23T07:13:30.192Z,2.35
2022-12-23T07:18:52.089Z,2.35
2022-12-23T07:24:13.820Z,6.40
2022-12-23T07:29:35.539Z,3.25
2022-12-23T07:34:57.223Z,6.55
2022-12-23T07:40:19.019Z,7.97
2022-12-23T07:45:40.765Z,5.68
2022-12-23T07:51:03.972Z,11.02
2022-12-23T07:56:25.710Z,11.00
2022-12-23T08:01:47.540Z,5.82
2022-12-23T08:07:09.283Z,4.18
2022-12-23T08:12:30.955Z,7.90
2022-12-23T08:17:54.773Z,4.95
2022-12-23T08:23:21.417Z,3.63
2022-12-23T08:28:46.302Z,6.50
2022-12-23T08:34:08.319Z,17.85
2022-12-23T08:39:30.037Z,29.52
2022-12-23T08:44:51.700Z,15.45
2022-12-23T08:50:13.459Z,15.93
2022-12-23T08:55:43.827Z,13.88
2022-12-23T09:01:07.523Z,15.73
2022-12-23T09:06:34.292Z,14.05
2022-12-23T09:11:55.992Z,14.25
2022-12-23T09:17:17.904Z,18.02
2022-12-23T09:22:39.741Z,7.53
2022-12-23T09:28:01.459Z,15.45
2022-12-23T09:33:23.213Z,22.40
2022-12-23T09:38:45.251Z,17.38
2022-12-23T09:44:22.652Z,11.15
2022-12-23T09:50:03.322Z,11.45
2022-12-23T09:55:32.438Z,29.33
2022-12-23T10:01:27.832Z,15.55
2022-12-23T10:07:03.967Z,24.17
2022-12-23T10:17:57.064Z,16.30
2022-12-23T10:23:31.355Z,25.42
2022-12-23T10:29:18.776Z,21.88
2022-12-23T10:35:05.487Z,18.67
2022-12-23T10:40:35.629Z,17.17
2022-12-23T10:46:29.228Z,12.07
2022-12-23T10:51:55.439Z,10.25
2022-12-23T10:57:19.744Z,8.50
2022-12-23T11:03:01.421Z,11.75
2022-12-23T11:08:25.356Z,5.93
2022-12-23T11:13:47.790Z,9.85
2022-12-23T11:19:15.354Z,9.02
2022-12-23T11:24:42.860Z,4.82
2022-12-23T11:30:05.692Z,7.53
2022-12-23T11:35:37.026Z,4.10
2022-12-23T11:40:59.422Z,6.63
2022-12-23T11:46:30.406Z,7.00
2022-12-23T11:52:01.933Z,3.70
2022-12-23T11:57:48.512Z,5.57
2022-12-23T12:08:41.812Z,6.95
2022-12-23T12:14:06.613Z,1.95
2022-12-23T12:19:43.575Z,3.17
2022-12-23T12:25:19.991Z,3.67
2022-12-23T12:30:52.838Z,3.33
2022-12-23T12:36:25.895Z,4.63
2022-12-23T12:41:58.541Z,1.83
2022-12-23T12:53:22.039Z,5.72
2022-12-23T12:58:45.086Z,1.65
2022-12-23T13:04:38.986Z,3.88
2022-12-23T13:10:15.984Z,2.40
2022-12-23T13:15:50.418Z,2.83
2022-12-23T13:21:16.117Z,4.43
2022-12-23T13:26:54.425Z,3.65
2022-12-23T13:33:02.339Z,3.25
2022-12-23T13:38:47.091Z,4.90
2022-12-23T13:44:10.909Z,9.43
2022-12-23T13:49:41.427Z,16.27
2022-12-23T13:55:11.748Z,16.45
2022-12-23T14:00:35.421Z,9.52
2022-12-23T14:05:57.131Z,13.40
2022-12-23T14:11:30.493Z,9.48
2022-12-23T14:17:07.097Z,12.05
2022-12-23T14:22:54.690Z,13.20
2022-12-23T14:28:58.260Z,17.80
2022-12-23T14:34:20.381Z,10.43
2022-12-23T14:39:42.583Z,10.98
2022-12-23T14:45:34.104Z,7.82
2022-12-23T14:51:02.050Z,14.88
2022-12-23T14:56:38.734Z,7.22
2022-12-23T15:02:01.762Z,15.70
2022-12-23T15:07:29.824Z,28.45
2022-12-23T15:13:02.962Z,17.10
2022-12-23T15:18:25.692Z,12.15
2022-12-23T15:23:50.835Z,24.55
2022-12-23T15:29:15.244Z,10.15
2022-12-23T15:34:36.992Z,15.38
2022-12-23T15:40:09.564Z,11.85
2022-12-23T15:45:37.706Z,14.23
2022-12-23T15:51:05.479Z,15.38
2022-12-23T15:56:32.175Z,28.42
2022-12-23T16:01:54.205Z,19.27
2022-12-23T16:07:42.128Z,32.20
2022-12-23T16:13:04.079Z,29.42
2022-12-23T16:18:32.885Z,35.45
2022-12-23T16:23:55.441Z,25.67
2022-12-23T16:29:17.187Z,23.98
2022-12-23T16:34:38.896Z,20.00
2022-12-23T16:40:03.187Z,21.88
2022-12-23T16:45:24.868Z,20.85
2022-12-23T16:50:47.393Z,18.17
2022-12-23T16:56:14.281Z,23.65
2022-12-23T17:01:42.318Z,13.18
2022-12-23T17:07:09.437Z,18.00
2022-12-23T17:12:31.199Z,16.27
2022-12-23T17:17:53.327Z,17.40
2022-12-23T17:23:26.643Z,20.67
2022-12-23T17:28:48.386Z,18.67
2022-12-23T17:34:21.907Z,16.63
2022-12-23T17:39:45.174Z,22.75
2022-12-23T17:45:17.592Z,18.92
2022-12-23T17:50:41.091Z,27.90
2022-12-23T17:56:03.735Z,33.55
2022-12-23T18:01:27.023Z,30.17
2022-12-23T18:06:48.836Z,26.85
2022-12-23T18:12:34.259Z,32.00
2022-12-23T18:17:56.341Z,26.50
2022-12-23T18:23:27.150Z,27.70
2022-12-23T18:28:48.991Z,23.63
2022-12-23T18:34:18.177Z,30.20
2022-12-23T18:39:39.911Z,21.77
2022-12-23T18:45:01.686Z,23.42
2022-12-23T18:50:23.718Z,29.13
2022-12-23T18:55:45.468Z,34.72
2022-12-23T19:01:11.886Z,63.42
2022-12-23T19:06:33.699Z,40.10
2022-12-23T19:11:55.456Z,40.30
2022-12-23T19:17:17.683Z,29.58
2022-12-23T19:22:40.119Z,33.00
2022-12-23T19:28:01.925Z,20.35
2022-12-23T19:33:23.714Z,29.00
2022-12-23T19:38:45.703Z,23.63
2022-12-23T19:44:07.494Z,47.08
2022-12-23T19:49:29.231Z,31.95
2022-12-23T19:54:52.463Z,20.90
2022-12-23T20:00:16.101Z,15.35
2022-12-23T20:05:37.848Z,14.45
2022-12-23T20:11:11.356Z,17.95
2022-12-23T20:16:34.449Z,18.23
2022-12-23T20:21:56.213Z,20.83
2022-12-23T20:27:22.641Z,22.50
2022-12-23T20:32:47.847Z,18.30
2022-12-23T20:38:09.654Z,17.60
2022-12-23T20:43:34.413Z,9.55
2022-12-23T20:48:56.216Z,11.83
2022-12-23T20:54:18.040Z,8.50
2022-12-23T20:59:39.737Z,12.80
2022-12-23T21:05:01.480Z,13.68
2022-12-23T21:10:23.136Z,15.45
2022-12-23T21:15:44.848Z,19.83
2022-12-23T21:21:06.585Z,16.13
2022-12-23T21:26:30.495Z,78.75
2022-12-23T21:31:52.472Z,36.40
2022-12-23T21:37:14.300Z,34.28
2022-12-23T21:42:35.971Z,17.80
2022-12-23T21:47:57.673Z,22.58
2022-12-23T21:53:19.570Z,29.33
2022-12-23T21:58:42.029Z,27.77
2022-12-23T22:04:04.648Z,21.15
2022-12-23T22:09:26.338Z,19.15
2022-12-23T22:14:48.028Z,18.30
2022-12-23T22:20:10.151Z,19.42
2022-12-23T22:25:31.888Z,20.70
2022-12-23T22:30:53.576Z,16.60
2022-12-23T22:36:16.044Z,15.40
2022-12-23T22:41:37.769Z,13.57
2022-12-23T22:46:59.490Z,11.32
2022-12-23T22:52:21.238Z,12.38
2022-12-23T22:57:42.975Z,10.40
2022-12-23T23:03:04.702Z,13.10
2022-12-23T23:08:26.967Z,11.18
2022-12-23T23:13:48.915Z,11.57
2022-12-23T23:19:11.624Z,11.80
2022-12-23T23:24:34.327Z,11.02
2022-12-23T23:29:56.011Z,10.23
2022-12-23T23:35:17.746Z,7.95
2022-12-23T23:40:39.671Z,7.40
2022-12-23T23:46:01.474Z,5.22
2022-12-23T23:51:23.619Z,8.50
2022-12-23T23:56:45.310Z,9.65
